Terminal Aerodrome Forecast
Issued by NWS

Home | Current Version | Previous Version | Text Only | Print | Product List | Glossary On
Versions: 1 2 3 4 5 6 7 8 9 10 11 12
000
FTUS45 KABQ 302344
TAFFMN
TAF
KFMN 302344Z 3100/3124 VRB06KT P6SM VCTS BKN050CB BKN080
      TEMPO 3100/3103 VRB15G25KT TSRA OVC030CB
     FM310400 11008KT P6SM VCSH SCT050 OVC100
     FM311100 16006KT P6SM SCT050 BKN120
     FM312200 25008KT P6SM BKN090=

USA.gov is the U.S. government's official web portal to all federal, state and local government web resources and services.